Fort Eustis, VA

4:02 PM EDT on April 25, 2017 (GMT -0400)
Felker Army Air Field

Weather History for KFAF - October, 2012

Change the Weather History Date:

Tuesday, October 30, 2012

  Actual Average Record
Temperature  
Mean Temperature 44 °F -  
Max Temperature 46 °F 64 °F 84 °F (1996)
Min Temperature 41 °F 47 °F 36 °F (2008)
Degree Days  
Heating Degree Days 22    
Moisture  
Dew Point 39 °F    
Average Humidity 87    
Maximum Humidity 93    
Minimum Humidity 74    
Precipitation  
Precipitation 0.32 in - - ()
Sea Level Pressure  
Sea Level Pressure 29.28 in    
Wind  
Wind Speed 14 mph (SW)    
Max Wind Speed 21 mph    
Max Gust Speed 31 mph    
Visibility 10 miles    
Events Rain    
Averages and records for this station are not official NWS values.
T = Trace of Precipitation, MM = Missing Value Source: NWS Daily Summary

Daily Weather History Graph

Daily Weather History Graph

Search for Another Location

Airport or City:

Trip Planner

Search our weather history database for the weather conditions in past years. The results will help you decide how hot, cold, wet, or windy it might be!

Date:

Astronomy

Oct. 30, 2012 Rise Set
Actual Time 7:29 AM EDT 6:10 PM EDT
Civil Twilight 7:02 AM EDT 6:37 PM EDT
Nautical Twilight 6:31 AM EDT 7:07 PM EDT
Astronomical Twilight 6:01 AM EDT 7:38 PM EDT
Moon 6:40 PM EDT (10/30) 8:12 AM EDT (10/30)
Length of Visible Light 11h 34m
Length of Day
10h 41m
Full, 99% of the Moon is Illuminated
Oct 30
Full
Nov 6
Last Quarter
Nov 13
New
Nov 20
First Quarter
Nov 28
Full

Hourly Weather History & Observations

Time (EDT) Temp. Windchill Dew Point Humidity Pressure Visibility Wind Dir Wind Speed Gust Speed Precip Events Conditions
12:15 AM 42.8 °F 35.4 °F 39.2 °F 87% 29.06 in 10.0 mi WSW 15.0 mph 29.9 mph N/A Rain Light Rain
12:18 AM 42.8 °F 34.0 °F 39.2 °F 87% 29.06 in 10.0 mi WSW 20.7 mph 29.9 mph N/A Rain Light Rain
12:22 AM 42.8 °F 35.8 °F 39.2 °F 87% 29.06 in 10.0 mi WSW 13.8 mph 29.9 mph N/A Rain Light Rain
12:24 AM 42.8 °F 35.8 °F 39.2 °F 87% 29.06 in 10.0 mi WSW 13.8 mph 29.9 mph N/A Rain Light Rain
12:31 AM 42.8 °F 35.1 °F 39.2 °F 87% 29.07 in 10.0 mi WSW 16.1 mph 31.1 mph N/A Rain Light Rain
12:32 AM 42.8 °F 35.1 °F 39.2 °F 87% 29.07 in 10.0 mi WSW 16.1 mph 31.1 mph N/A Rain Light Rain
12:39 AM 42.8 °F 35.1 °F 39.2 °F 87% 29.07 in 10.0 mi WSW 16.1 mph 31.1 mph N/A Rain Light Rain
12:43 AM 42.8 °F 35.8 °F 39.2 °F 87% 29.07 in 10.0 mi WSW 13.8 mph 25.3 mph N/A Rain Light Rain
12:48 AM 42.8 °F 36.2 °F 39.2 °F 87% 29.08 in 10.0 mi WSW 12.7 mph 25.3 mph N/A Rain Rain
12:49 AM 42.8 °F 35.4 °F 39.2 °F 87% 29.07 in 10.0 mi SW 15.0 mph 25.3 mph N/A Rain Light Rain
12:55 AM 42.6 °F 34.6 °F 39.9 °F 90% 29.08 in 9.0 mi WSW 17.3 mph 28.8 mph 0.07 in Rain Rain
1:40 AM 42.8 °F 34.8 °F 41.0 °F 93% 29.09 in 10.0 mi SW 17.3 mph 26.5 mph N/A Rain Light Rain
1:55 AM 43.0 °F 35.1 °F 40.1 °F 90% 29.09 in 10.0 mi SW 17.3 mph 28.8 mph 0.06 in Rain Light Rain
2:01 AM 42.8 °F 35.4 °F 39.2 °F 87% 29.10 in 10.0 mi WSW 15.0 mph 24.2 mph N/A Rain Light Rain
2:07 AM 42.8 °F 35.8 °F 41.0 °F 93% 29.10 in 10.0 mi WSW 13.8 mph 25.3 mph N/A Rain Light Rain
2:40 AM 42.8 °F 35.8 °F 39.2 °F 87% 29.11 in 10.0 mi WSW 13.8 mph 24.2 mph N/A Rain Light Rain
2:41 AM 42.8 °F 36.2 °F 39.2 °F 87% 29.11 in 10.0 mi WSW 12.7 mph 24.2 mph N/A Rain Light Rain
3:40 AM 42.8 °F 34.3 °F 39.2 °F 87% 29.11 in 10.0 mi SW 19.6 mph 28.8 mph N/A Rain Light Rain
3:47 AM 42.8 °F 35.4 °F 39.2 °F 87% 29.11 in 10.0 mi SW 15.0 mph 28.8 mph N/A Rain Light Rain
3:53 AM 42.8 °F 34.8 °F 39.2 °F 87% 29.11 in 10.0 mi WSW 17.3 mph 27.6 mph N/A Rain Light Rain
3:55 AM 42.8 °F 35.4 °F 40.1 °F 90% 29.11 in 10.0 mi SW 15.0 mph 27.6 mph 0.01 in Rain Light Rain
4:05 AM 42.8 °F 35.4 °F 41.0 °F 93% 29.12 in 10.0 mi SW 15.0 mph 20.7 mph N/A Rain Light Rain
4:07 AM 42.8 °F 35.1 °F 41.0 °F 93% 29.12 in 10.0 mi SW 16.1 mph 20.7 mph N/A Rain Light Rain
4:09 AM 42.8 °F 35.8 °F 41.0 °F 93% 29.12 in 10.0 mi SW 13.8 mph 20.7 mph N/A Rain Light Rain
4:10 AM 42.8 °F 35.8 °F 41.0 °F 93% 29.12 in 10.0 mi SW 13.8 mph 20.7 mph N/A Rain Light Rain
4:25 AM 42.8 °F 35.4 °F 39.2 °F 87% 29.13 in 10.0 mi SW 15.0 mph 25.3 mph N/A Rain Light Rain
4:28 AM 42.8 °F 35.1 °F 41.0 °F 93% 29.13 in 10.0 mi SW 16.1 mph 25.3 mph N/A   Light Drizzle
4:55 AM 42.8 °F 35.8 °F 39.7 °F 89% 29.14 in 10.0 mi SW 13.8 mph 23.0 mph 0.01 in Rain Light Rain
4:56 AM 42.8 °F 36.6 °F 39.2 °F 87% 29.15 in 10.0 mi SW 11.5 mph 23.0 mph N/A Rain Light Rain
5:09 AM 42.8 °F 37.0 °F 39.2 °F 87% 29.15 in 10.0 mi SW 10.4 mph 25.3 mph N/A   Light Drizzle
5:46 AM 42.8 °F 35.4 °F 39.2 °F 87% 29.17 in 10.0 mi SW 15.0 mph 24.2 mph N/A   Light Drizzle
5:55 AM 42.8 °F 35.8 °F 39.9 °F 90% 29.18 in 10.0 mi SW 13.8 mph 24.2 mph 0.00 in   Light Drizzle
6:18 AM 42.8 °F 36.2 °F 39.2 °F 87% 29.20 in 10.0 mi SW 12.7 mph 27.6 mph N/A Rain Light Rain
6:23 AM 42.8 °F 35.4 °F 39.2 °F 87% 29.20 in 10.0 mi SW 15.0 mph 27.6 mph N/A Rain Light Rain
6:55 AM 42.6 °F 35.2 °F 39.6 °F 89% 29.22 in 10.0 mi SW 15.0 mph 31.1 mph 0.02 in Rain Light Rain
7:01 AM 42.8 °F 36.6 °F 39.2 °F 87% 29.23 in 10.0 mi SW 11.5 mph 25.3 mph N/A Rain Light Rain
7:06 AM 42.8 °F 35.1 °F 39.2 °F 87% 29.22 in 10.0 mi SW 16.1 mph 24.2 mph N/A Rain Light Rain
7:08 AM 42.8 °F 35.4 °F 39.2 °F 87% 29.23 in 10.0 mi SW 15.0 mph 26.5 mph N/A Rain Light Rain
7:14 AM 42.8 °F 35.8 °F 39.2 °F 87% 29.23 in 10.0 mi SW 13.8 mph 26.5 mph N/A Rain Light Rain
7:15 AM 42.8 °F 35.8 °F 39.2 °F 87% 29.23 in 10.0 mi SW 13.8 mph 26.5 mph N/A Rain Light Rain
7:16 AM 42.8 °F 36.2 °F 39.2 °F 87% 29.24 in 10.0 mi SW 12.7 mph 26.5 mph N/A Rain Light Rain
7:20 AM 42.8 °F 35.1 °F 39.2 °F 87% 29.24 in 10.0 mi SW 16.1 mph 24.2 mph N/A Rain Light Rain
7:39 AM 42.8 °F 36.6 °F 39.2 °F 87% 29.25 in 10.0 mi SW 11.5 mph - N/A Rain Light Rain
7:40 AM 42.8 °F 36.6 °F 39.2 °F 87% 29.25 in 10.0 mi SW 11.5 mph 17.3 mph N/A Rain Light Rain
7:55 AM 42.1 °F 34.2 °F 39.4 °F 90% 29.26 in 9.0 mi SW 16.1 mph 25.3 mph 0.02 in Rain Light Rain
8:03 AM 42.8 °F 35.4 °F 39.2 °F 87% 29.27 in 9.0 mi SW 15.0 mph 31.1 mph N/A Rain Light Rain
8:04 AM 42.8 °F 34.8 °F 39.2 °F 87% 29.27 in 9.0 mi SW 17.3 mph 31.1 mph N/A Rain Light Rain
8:06 AM 42.8 °F 34.8 °F 39.2 °F 87% 29.27 in 8.0 mi SW 17.3 mph 31.1 mph N/A Rain Light Rain
8:09 AM 41.0 °F 33.9 °F 39.2 °F 93% 29.28 in 8.0 mi SW 12.7 mph 31.1 mph N/A Rain Light Rain
8:31 AM 41.0 °F 33.5 °F 39.2 °F 93% 29.29 in 10.0 mi SW 13.8 mph 25.3 mph N/A Rain Light Rain
8:46 AM 42.8 °F 36.6 °F 39.2 °F 87% 29.30 in 10.0 mi SW 11.5 mph 24.2 mph N/A Rain Light Rain
8:55 AM 42.3 °F 34.4 °F 39.4 °F 90% 29.30 in 10.0 mi SSW 16.1 mph 21.9 mph 0.02 in Rain Light Rain
9:55 AM 42.3 °F 34.8 °F 39.4 °F 90% 29.34 in 10.0 mi WSW 15.0 mph 23.0 mph 0.02 in Rain Light Rain
10:55 AM 42.8 °F 35.8 °F 39.4 °F 88% 29.36 in 10.0 mi SW 13.8 mph 21.9 mph 0.01 in Rain Light Rain
11:32 AM 42.8 °F 35.4 °F 39.2 °F 87% 29.38 in 10.0 mi SSW 15.0 mph 23.0 mph N/A Rain Light Rain
11:40 AM 42.8 °F 35.8 °F 39.2 °F 87% 29.38 in 10.0 mi SW 13.8 mph 21.9 mph N/A Rain Light Rain
11:41 AM 42.8 °F 36.6 °F 39.2 °F 87% 29.38 in 10.0 mi SW 11.5 mph 21.9 mph N/A Rain Light Rain
11:42 AM 42.8 °F 36.6 °F 39.2 °F 87% 29.38 in 10.0 mi SW 11.5 mph 20.7 mph N/A Rain Light Rain
11:55 AM 42.4 °F 34.4 °F 39.2 °F 88% 29.38 in 10.0 mi SSW 17.3 mph 24.2 mph 0.03 in Rain Light Rain
12:24 PM 42.8 °F 37.5 °F 39.2 °F 87% 29.39 in 10.0 mi SW 9.2 mph 25.3 mph N/A Rain Light Rain
12:29 PM 42.8 °F 35.8 °F 39.2 °F 87% 29.39 in 10.0 mi SW 13.8 mph 25.3 mph N/A Rain Light Rain
12:37 PM 42.8 °F 37.5 °F 39.2 °F 87% 29.39 in 10.0 mi SW 9.2 mph 21.9 mph N/A Rain Light Rain
12:38 PM 42.8 °F 37.0 °F 39.2 °F 87% 29.39 in 10.0 mi SW 10.4 mph 21.9 mph N/A Rain Light Rain
12:49 PM 42.8 °F 34.5 °F 39.2 °F 87% 29.39 in 10.0 mi SW 18.4 mph 24.2 mph N/A Rain Light Rain
12:55 PM 42.6 °F 36.3 °F 39.2 °F 88% 29.39 in 10.0 mi SW 11.5 mph 24.2 mph 0.02 in Rain Light Rain
1:20 PM 42.8 °F 37.0 °F 39.2 °F 87% 29.40 in 10.0 mi SW 10.4 mph 23.0 mph N/A Rain Light Rain
1:26 PM 42.8 °F 36.2 °F 39.2 °F 87% 29.39 in 10.0 mi WSW 12.7 mph 21.9 mph N/A Rain Light Rain
1:46 PM 42.8 °F 35.8 °F 39.2 °F 87% 29.40 in 10.0 mi SW 13.8 mph 21.9 mph N/A Rain Light Rain
1:49 PM 42.8 °F 37.0 °F 39.2 °F 87% 29.40 in 10.0 mi SW 10.4 mph 18.4 mph N/A Rain Light Rain
1:55 PM 42.8 °F 36.6 °F 39.4 °F 88% 29.40 in 10.0 mi SW 11.5 mph 19.6 mph 0.02 in Rain Light Rain
2:29 PM 42.8 °F 37.0 °F 39.2 °F 87% 29.41 in 10.0 mi SW 10.4 mph - N/A   Light Drizzle
2:33 PM 42.8 °F 37.5 °F 39.2 °F 87% 29.40 in 10.0 mi SSW 9.2 mph 17.3 mph N/A   Scattered Clouds
2:39 PM 42.8 °F 37.0 °F 39.2 °F 87% 29.41 in 10.0 mi SSW 10.4 mph 17.3 mph N/A   Light Drizzle
2:55 PM 43.5 °F 38.3 °F 39.9 °F 87% 29.41 in 10.0 mi SSW 9.2 mph - 0.00 in Rain Light Rain
3:03 PM 42.8 °F 37.5 °F 39.2 °F 87% 29.39 in 10.0 mi SW 9.2 mph - N/A Rain Light Rain
3:22 PM 44.6 °F 40.2 °F 39.2 °F 81% 29.42 in 10.0 mi SW 8.1 mph 17.3 mph N/A Rain Light Rain
3:34 PM 42.8 °F 37.0 °F 39.2 °F 87% 29.42 in 10.0 mi WSW 10.4 mph 21.9 mph N/A Rain Light Rain
3:44 PM 42.8 °F 37.5 °F 39.2 °F 87% 29.42 in 10.0 mi SW 9.2 mph 17.3 mph N/A   Mostly Cloudy
3:55 PM 43.7 °F 39.1 °F 38.5 °F 82% 29.42 in 10.0 mi SW 8.1 mph - 0.01 in   Partly Cloudy
3:59 PM 43.7 °F 39.1 °F 38.5 °F 82% 29.42 in 10.0 mi SW 8.1 mph - 0.01 in   Mostly Cloudy
4:55 PM 44.8 °F 40.4 °F 39.4 °F 81% 29.44 in 10.0 mi SSW 8.1 mph 18.4 mph N/A   Partly Cloudy
5:11 PM 44.6 °F 39.2 °F 39.2 °F 81% 29.44 in 10.0 mi SSW 10.4 mph - N/A   Light Drizzle
5:21 PM 44.6 °F 39.7 °F 39.2 °F 81% 29.44 in 10.0 mi SSW 9.2 mph 16.1 mph N/A   Clear
5:23 PM 46.4 °F 42.4 °F 39.2 °F 76% 29.44 in 10.0 mi South 8.1 mph 16.1 mph N/A   Light Drizzle
5:32 PM 44.6 °F 38.8 °F 39.2 °F 81% 29.45 in 10.0 mi SSW 11.5 mph 16.1 mph N/A   Clear
5:48 PM 46.4 °F 41.1 °F 39.2 °F 76% 29.45 in 10.0 mi SSW 11.5 mph 18.4 mph N/A Rain Light Rain
5:55 PM 45.5 °F 41.3 °F 40.1 °F 81% 29.46 in 10.0 mi SSW 8.1 mph - 0.00 in Rain Light Rain
6:22 PM 44.6 °F 40.7 °F 41.0 °F 87% 29.46 in 10.0 mi SSW 6.9 mph - N/A   Clear
6:55 PM 45.7 °F 41.0 °F 40.1 °F 81% 29.48 in 10.0 mi SSW 9.2 mph 16.1 mph 0.00 in   Overcast
7:55 PM 46.0 °F 41.0 °F 40.5 °F 81% 29.50 in 10.0 mi SSW 10.4 mph - N/A   Scattered Clouds
8:55 PM 45.9 °F 42.9 °F 39.9 °F 80% 29.52 in 10.0 mi SW 5.8 mph - N/A   Mostly Cloudy
9:55 PM 46.2 °F 42.7 °F 40.1 °F 79% 29.53 in 10.0 mi Variable 6.9 mph - N/A   Mostly Cloudy
10:55 PM 45.7 °F 42.7 °F 39.6 °F 79% 29.54 in 10.0 mi SW 5.8 mph - N/A   Overcast
11:55 PM 45.7 °F 42.0 °F 37.8 °F 74% 29.53 in 10.0 mi WSW 6.9 mph - N/A   Overcast